createdAt,value
2018-04-30T00:00:28.416Z,75.54
2018-04-30T00:01:28.592Z,76.02
2018-04-30T00:02:28.772Z,75.35
2018-04-30T00:03:28.962Z,75.92
2018-04-30T00:04:29.151Z,76.02
2018-04-30T00:05:29.331Z,76.17
2018-04-30T00:06:29.521Z,76.46
2018-04-30T00:07:29.708Z,76.27
2018-04-30T00:08:29.894Z,76.37
2018-04-30T00:09:30.076Z,76.56
2018-04-30T00:10:30.259Z,76.75
2018-04-30T00:11:30.447Z,77.04
2018-04-30T00:12:30.627Z,77.04
2018-04-30T00:13:30.816Z,76.65
2018-04-30T00:14:30.995Z,76.84
2018-04-30T00:15:31.182Z,76.75
2018-04-30T00:16:31.364Z,77.13
2018-04-30T00:17:31.552Z,77.04
2018-04-30T00:18:31.736Z,76.75
2018-04-30T00:19:31.925Z,76.94
2018-04-30T00:20:32.108Z,76.94
2018-04-30T00:21:32.292Z,76.75
2018-04-30T00:22:32.476Z,76.75
2018-04-30T00:23:32.664Z,77.33
2018-04-30T00:24:32.854Z,77.04
2018-04-30T00:25:33.046Z,77.04
2018-04-30T00:26:33.217Z,77.04
2018-04-30T00:27:33.405Z,76.65
2018-04-30T00:28:33.593Z,76.75
2018-04-30T00:29:33.780Z,76.84
2018-04-30T00:30:33.962Z,77.23
2018-04-30T00:31:34.145Z,76.94
2018-04-30T00:32:34.334Z,77.13
2018-04-30T00:33:34.530Z,77.08
2018-04-30T00:34:34.707Z,77.51
2018-04-30T00:35:34.896Z,76.56
2018-04-30T00:36:35.097Z,76.79
2018-04-30T00:37:35.274Z,76.75
2018-04-30T00:38:35.448Z,76.46
2018-04-30T00:39:35.636Z,77.17
2018-04-30T00:40:35.824Z,76.98
2018-04-30T00:41:36.006Z,76.79
2018-04-30T00:42:36.194Z,76.88
2018-04-30T00:43:36.385Z,76.65
2018-04-30T00:44:36.572Z,76.65
2018-04-30T00:45:36.752Z,77.04
2018-04-30T00:46:36.936Z,77.04
2018-04-30T00:47:37.116Z,77.04
2018-04-30T00:48:37.308Z,77.23
2018-04-30T00:49:37.487Z,76.75
2018-04-30T00:50:37.672Z,77.13
2018-04-30T00:51:37.856Z,77.90
2018-04-30T00:52:38.045Z,77.80
2018-04-30T00:53:38.231Z,78.00
2018-04-30T00:54:38.417Z,78.28
2018-04-30T00:55:38.603Z,78.67
2018-04-30T00:56:38.787Z,78.28
2018-04-30T00:57:38.974Z,78.09
2018-04-30T00:58:39.166Z,77.71
2018-04-30T00:59:39.343Z,77.90
2018-04-30T01:00:39.523Z,78.00
2018-04-30T01:01:39.709Z,78.19
2018-04-30T01:02:39.894Z,78.25
2018-04-30T01:03:40.082Z,78.34
2018-04-30T01:04:40.266Z,78.72
2018-04-30T01:05:40.455Z,79.88
2018-04-30T01:06:40.646Z,80.60
2018-04-30T01:07:40.823Z,81.27
2018-04-30T01:08:41.010Z,80.99
2018-04-30T01:09:41.201Z,81.37
2018-04-30T01:10:41.389Z,81.37
2018-04-30T01:11:41.571Z,81.66
2018-04-30T01:12:41.758Z,81.18
2018-04-30T01:13:41.938Z,81.18
2018-04-30T01:14:42.119Z,80.93
2018-04-30T01:15:42.313Z,81.12
2018-04-30T01:16:42.497Z,81.18
2018-04-30T01:17:42.683Z,80.99
2018-04-30T01:18:42.875Z,81.08
2018-04-30T01:19:43.057Z,81.31
2018-04-30T01:20:43.243Z,81.31
2018-04-30T01:21:43.463Z,80.26
2018-04-30T01:22:43.614Z,80.64
2018-04-30T01:23:43.802Z,80.93
2018-04-30T01:24:43.984Z,80.55
2018-04-30T01:25:44.160Z,80.26
2018-04-30T01:26:44.351Z,80.83
2018-04-30T01:27:44.531Z,80.93
2018-04-30T01:28:44.721Z,80.93
2018-04-30T01:29:44.897Z,80.22
2018-04-30T01:30:45.086Z,80.35
2018-04-30T01:31:45.270Z,81.08
2018-04-30T01:32:45.453Z,82.19
2018-04-30T01:33:45.649Z,82.62
2018-04-30T01:34:45.834Z,82.52
2018-04-30T01:35:46.261Z,82.52
2018-04-30T01:36:46.199Z,82.19
2018-04-30T01:37:46.387Z,82.67
2018-04-30T01:38:46.576Z,83.34
2018-04-30T01:39:46.760Z,84.55
2018-04-30T01:40:46.963Z,84.26
2018-04-30T01:41:47.128Z,84.55
2018-04-30T01:42:47.322Z,84.64
2018-04-30T01:43:47.500Z,84.45
2018-04-30T01:44:47.685Z,84.45
2018-04-30T01:45:47.874Z,84.64
2018-04-30T01:46:48.057Z,84.74
2018-04-30T01:47:48.241Z,85.41
2018-04-30T01:48:48.425Z,85.12
2018-04-30T01:49:48.615Z,84.83
2018-04-30T01:50:48.803Z,85.25
2018-04-30T01:51:48.985Z,85.12
2018-04-30T01:52:49.165Z,85.31
2018-04-30T01:53:49.352Z,85.41
2018-04-30T01:54:49.534Z,85.12
2018-04-30T01:55:49.716Z,84.88
2018-04-30T01:56:49.896Z,84.68
2018-04-30T01:57:50.079Z,85.16
2018-04-30T01:58:50.265Z,84.68
2018-04-30T01:59:50.460Z,84.88
2018-04-30T02:00:50.631Z,84.68
2018-04-30T02:01:50.819Z,84.49
2018-04-30T02:02:51.009Z,84.49
2018-04-30T02:03:51.181Z,84.11
2018-04-30T02:04:51.360Z,84.01
2018-04-30T02:05:51.545Z,83.72
2018-04-30T02:06:51.734Z,83.92
2018-04-30T02:07:51.911Z,84.49
2018-04-30T02:08:52.093Z,85.25
2018-04-30T02:09:52.284Z,84.88
2018-04-30T02:10:52.464Z,84.97
2018-04-30T02:11:52.652Z,84.58
2018-04-30T02:12:52.842Z,85.25
2018-04-30T02:13:53.026Z,84.88
2018-04-30T02:14:53.204Z,86.08
2018-04-30T02:15:53.397Z,85.79
2018-04-30T02:16:53.590Z,85.98
2018-04-30T02:17:53.827Z,85.45
2018-04-30T02:18:53.962Z,85.45
2018-04-30T02:19:54.147Z,85.35
2018-04-30T02:20:54.331Z,86.12
2018-04-30T02:21:54.522Z,86.17
2018-04-30T02:22:54.705Z,86.94
2018-04-30T02:23:54.887Z,86.74
2018-04-30T02:24:55.076Z,86.46
2018-04-30T02:25:55.260Z,86.08
2018-04-30T02:26:55.450Z,85.69
2018-04-30T02:27:55.631Z,86.46
2018-04-30T02:28:55.813Z,87.32
2018-04-30T02:29:56.002Z,86.94
2018-04-30T02:30:56.190Z,86.17
2018-04-30T02:31:56.374Z,86.27
2018-04-30T02:32:56.554Z,86.36
2018-04-30T02:33:56.748Z,86.36
2018-04-30T02:34:56.916Z,85.88
2018-04-30T02:35:57.112Z,85.41
2018-04-30T02:36:57.322Z,86.08
2018-04-30T02:37:57.715Z,85.41
2018-04-30T02:38:57.666Z,84.88
2018-04-30T02:39:57.854Z,85.12
2018-04-30T02:40:58.045Z,85.02
2018-04-30T02:41:58.228Z,85.16
2018-04-30T02:42:58.417Z,85.35
2018-04-30T02:43:58.606Z,84.68
2018-04-30T02:44:58.790Z,84.58
2018-04-30T02:45:58.978Z,84.49
2018-04-30T02:46:59.172Z,83.82
2018-04-30T02:47:59.346Z,83.82
2018-04-30T02:48:59.529Z,83.63
2018-04-30T02:49:59.713Z,84.11
2018-04-30T02:50:59.898Z,83.72
2018-04-30T02:52:00.100Z,83.82
2018-04-30T02:53:00.289Z,84.20
2018-04-30T02:54:00.471Z,84.01
2018-04-30T02:55:00.660Z,83.92
2018-04-30T02:56:00.851Z,83.34
2018-04-30T02:57:01.046Z,83.92
2018-04-30T02:58:01.230Z,83.82
2018-04-30T02:59:01.416Z,83.92
2018-04-30T03:00:01.611Z,84.01
2018-04-30T03:01:01.785Z,82.90
2018-04-30T03:03:02.139Z,83.25
2018-04-30T03:04:02.316Z,83.38
2018-04-30T03:05:02.503Z,83.29
2018-04-30T03:06:02.693Z,83.34
2018-04-30T03:07:02.879Z,83.25
2018-04-30T03:08:03.071Z,83.00
2018-04-30T03:09:03.254Z,83.29
2018-04-30T03:12:35.719Z,82.71
2018-04-30T03:13:35.897Z,82.76
2018-04-30T03:14:36.085Z,82.48
2018-04-30T03:15:36.271Z,82.62
2018-04-30T03:16:36.446Z,82.23
2018-04-30T03:17:36.629Z,82.57
2018-04-30T03:18:36.814Z,82.67
2018-04-30T03:19:36.999Z,82.29
2018-04-30T03:20:37.172Z,82.62
2018-04-30T03:21:37.353Z,82.23
2018-04-30T03:22:37.537Z,82.19
2018-04-30T03:23:37.719Z,82.29
2018-04-30T03:24:37.901Z,81.95
2018-04-30T03:26:38.267Z,82.57
2018-04-30T03:27:38.444Z,82.42
2018-04-30T03:28:38.616Z,82.81
2018-04-30T03:29:38.801Z,82.52
2018-04-30T03:30:38.989Z,83.00
2018-04-30T03:31:39.172Z,82.90
2018-04-30T03:32:39.350Z,82.76
2018-04-30T03:33:39.524Z,82.81
2018-04-30T03:34:39.710Z,83.05
2018-04-30T03:35:39.889Z,83.19
2018-04-30T03:36:40.073Z,82.96
2018-04-30T03:37:40.251Z,82.57
2018-04-30T03:38:40.432Z,82.67
2018-04-30T03:39:40.625Z,82.67
2018-04-30T03:40:40.793Z,82.67
2018-04-30T03:41:40.977Z,83.15
2018-04-30T03:42:41.159Z,83.25
2018-04-30T03:43:41.338Z,83.15
2018-04-30T03:44:41.516Z,83.25
2018-04-30T03:45:41.700Z,83.25
2018-04-30T03:46:41.880Z,82.96
2018-04-30T03:47:42.061Z,82.96
2018-04-30T03:48:42.244Z,83.25
2018-04-30T03:49:42.499Z,82.96
2018-04-30T03:50:42.606Z,82.96
2018-04-30T03:51:42.786Z,82.96
2018-04-30T03:52:42.969Z,83.25
2018-04-30T03:53:43.148Z,82.96
2018-04-30T03:54:43.339Z,83.05
2018-04-30T03:55:43.507Z,83.15
2018-04-30T03:56:43.696Z,83.05
2018-04-30T03:57:43.872Z,83.15
2018-04-30T03:58:44.062Z,83.72
2018-04-30T04:00:44.419Z,83.05
2018-04-30T04:01:44.601Z,83.25
2018-04-30T04:02:44.783Z,83.34
2018-04-30T04:03:44.958Z,83.34
2018-04-30T04:04:45.144Z,83.34
2018-04-30T04:05:45.319Z,83.05
2018-04-30T04:06:45.507Z,83.25
2018-04-30T04:07:45.680Z,83.34
2018-04-30T04:08:45.863Z,83.15
2018-04-30T04:09:46.054Z,82.86
2018-04-30T04:10:46.228Z,82.96
2018-04-30T04:11:46.408Z,83.05
2018-04-30T04:12:46.607Z,83.05
2018-04-30T04:13:46.769Z,83.34
2018-04-30T04:14:46.952Z,82.82
2018-04-30T04:15:47.135Z,83.25
2018-04-30T04:16:47.316Z,82.92
2018-04-30T04:17:47.500Z,83.20
2018-04-30T04:18:47.688Z,83.05
2018-04-30T04:19:47.861Z,82.92
2018-04-30T04:20:48.042Z,83.11
2018-04-30T04:21:48.226Z,82.82
2018-04-30T04:22:48.407Z,82.76
2018-04-30T04:23:48.592Z,82.96
2018-04-30T04:24:48.772Z,82.48
2018-04-30T04:25:48.958Z,82.19
2018-04-30T04:26:49.130Z,82.38
2018-04-30T04:27:49.313Z,82.53
2018-04-30T04:28:49.498Z,82.38
2018-04-30T04:29:49.670Z,82.48
2018-04-30T04:30:49.848Z,82.48
2018-04-30T04:31:50.034Z,81.90
2018-04-30T04:32:50.216Z,81.71
2018-04-30T04:33:50.399Z,81.71
2018-04-30T04:34:50.591Z,81.81
2018-04-30T04:35:50.761Z,81.81
2018-04-30T04:36:50.954Z,82.00
2018-04-30T04:37:51.140Z,82.19
2018-04-30T04:38:51.319Z,81.62
2018-04-30T04:39:51.493Z,81.52
2018-04-30T04:40:51.982Z,81.04
2018-04-30T04:41:51.852Z,81.13
2018-04-30T04:42:52.035Z,81.13
2018-04-30T04:43:52.219Z,81.33
2018-04-30T04:44:52.391Z,81.71
2018-04-30T04:45:52.587Z,81.52
2018-04-30T04:46:52.755Z,81.23
2018-04-30T04:47:52.937Z,81.62
2018-04-30T04:48:53.183Z,81.52
2018-04-30T04:49:53.310Z,81.52
2018-04-30T04:50:53.493Z,81.48
2018-04-30T04:51:53.662Z,81.13
2018-04-30T04:52:53.848Z,80.85
2018-04-30T04:53:54.027Z,80.71
2018-04-30T04:54:54.211Z,81.00
2018-04-30T04:55:54.389Z,80.62
2018-04-30T04:56:54.576Z,80.52
2018-04-30T04:57:54.763Z,80.71
2018-04-30T04:58:54.937Z,79.57
2018-04-30T04:59:55.121Z,79.85
2018-04-30T05:00:55.310Z,79.66
2018-04-30T05:01:55.488Z,79.57
2018-04-30T05:02:55.677Z,79.08
2018-04-30T05:03:55.855Z,78.70
2018-04-30T05:04:56.037Z,78.61
2018-04-30T05:05:56.220Z,79.18
2018-04-30T05:06:56.397Z,79.18
2018-04-30T05:07:56.581Z,78.89
2018-04-30T05:08:56.759Z,79.18
2018-04-30T05:09:56.947Z,78.99
2018-04-30T05:10:57.210Z,78.70
2018-04-30T05:11:57.305Z,78.32
2018-04-30T05:12:57.497Z,78.13
2018-04-30T05:13:57.668Z,78.42
2018-04-30T05:14:57.852Z,78.22
2018-04-30T05:15:58.034Z,77.99
2018-04-30T05:16:58.214Z,78.22
2018-04-30T05:17:58.427Z,77.84
2018-04-30T05:18:58.568Z,77.80
2018-04-30T05:19:58.748Z,78.03
2018-04-30T05:20:59.030Z,78.19
2018-04-30T05:21:59.110Z,77.90
2018-04-30T05:22:59.303Z,78.28
2018-04-30T05:23:59.473Z,78.19
2018-04-30T05:24:59.650Z,78.19
2018-04-30T05:25:59.832Z,78.47
2018-04-30T05:27:00.015Z,78.47
2018-04-30T05:28:00.198Z,77.90
2018-04-30T05:29:00.375Z,78.19
2018-04-30T05:30:00.561Z,78.38
2018-04-30T05:31:00.754Z,78.57
2018-04-30T05:32:00.915Z,77.90
2018-04-30T05:33:01.101Z,77.99
2018-04-30T05:34:01.286Z,78.57
2018-04-30T05:35:01.460Z,78.09
2018-04-30T05:36:01.638Z,77.99
2018-04-30T05:37:01.820Z,78.38
2018-04-30T05:38:01.999Z,77.99
2018-04-30T05:39:02.186Z,78.28
2018-04-30T05:40:02.363Z,78.38
2018-04-30T05:41:02.537Z,77.90
2018-04-30T05:42:02.721Z,77.70
2018-04-30T05:43:02.900Z,77.28
2018-04-30T05:44:03.068Z,76.56
2018-04-30T05:45:03.249Z,76.52
2018-04-30T05:46:03.436Z,76.37
2018-04-30T05:47:03.604Z,77.09
2018-04-30T05:48:03.859Z,76.23
2018-04-30T05:49:03.966Z,76.90
2018-04-30T05:50:04.156Z,76.52
2018-04-30T05:51:04.330Z,77.00
2018-04-30T05:52:04.510Z,76.81
2018-04-30T05:53:04.708Z,76.33
2018-04-30T05:54:04.871Z,76.84
2018-04-30T05:55:05.123Z,76.71
2018-04-30T05:56:05.225Z,76.52
2018-04-30T05:57:05.401Z,76.62
2018-04-30T05:58:05.600Z,76.42
2018-04-30T05:59:05.756Z,76.52
2018-04-30T06:00:05.936Z,76.42
2018-04-30T06:01:06.113Z,76.81
2018-04-30T06:02:06.544Z,76.23
2018-04-30T06:03:06.482Z,75.76
2018-04-30T06:04:06.664Z,75.76
2018-04-30T06:05:06.845Z,75.85
2018-04-30T06:06:07.029Z,74.99
2018-04-30T06:07:07.213Z,75.47
2018-04-30T06:08:07.384Z,75.27
2018-04-30T06:09:07.576Z,74.80
2018-04-30T06:10:07.751Z,74.99
2018-04-30T06:11:07.931Z,75.27
2018-04-30T06:12:08.159Z,74.90
2018-04-30T06:13:08.299Z,74.70
2018-04-30T06:14:08.475Z,74.61
2018-04-30T06:15:08.657Z,74.61
2018-04-30T06:16:08.841Z,73.94
2018-04-30T06:17:09.020Z,74.04
2018-04-30T06:18:09.225Z,73.94
2018-04-30T06:19:09.375Z,73.84
2018-04-30T06:20:09.556Z,74.41
2018-04-30T06:21:09.726Z,73.46
2018-04-30T06:22:09.908Z,73.75
2018-04-30T06:23:10.090Z,73.36
2018-04-30T06:24:10.264Z,73.84
2018-04-30T06:25:10.435Z,74.41
2018-04-30T06:26:10.621Z,74.04
2018-04-30T06:27:10.794Z,74.22
2018-04-30T06:28:10.972Z,74.51
2018-04-30T06:29:11.155Z,74.61
2018-04-30T06:30:12.253Z,74.22
2018-04-30T06:31:11.499Z,74.22
2018-04-30T06:32:11.677Z,74.22
2018-04-30T06:33:11.860Z,73.94
2018-04-30T06:34:12.052Z,74.22
2018-04-30T06:35:12.220Z,74.32
2018-04-30T06:36:12.465Z,73.75
2018-04-30T06:37:12.578Z,73.30
2018-04-30T06:38:12.776Z,72.92
2018-04-30T06:39:12.938Z,73.11
2018-04-30T06:40:13.109Z,72.44
2018-04-30T06:41:13.303Z,72.06
2018-04-30T06:42:13.466Z,71.97
2018-04-30T06:43:13.632Z,71.87
2018-04-30T06:44:13.823Z,71.68
2018-04-30T06:45:14.010Z,71.97
2018-04-30T06:46:14.443Z,71.39
2018-04-30T06:47:14.375Z,71.30
2018-04-30T06:48:14.553Z,70.81
2018-04-30T06:49:14.742Z,70.34
2018-04-30T06:50:14.915Z,70.24
2018-04-30T06:51:15.089Z,69.60
2018-04-30T06:52:15.278Z,67.54
2018-04-30T06:53:15.444Z,65.30
2018-04-30T06:54:15.626Z,63.86
2018-04-30T06:55:15.815Z,62.26
2018-04-30T06:56:15.990Z,60.63
2018-04-30T06:57:16.163Z,60.92
2018-04-30T06:58:16.337Z,62.23
2018-04-30T06:59:16.521Z,62.71
2018-04-30T07:00:16.722Z,63.67
2018-04-30T07:01:16.882Z,63.92
2018-04-30T07:02:17.063Z,64.76
2018-04-30T07:03:17.245Z,65.71
2018-04-30T07:04:17.428Z,66.58
2018-04-30T07:05:17.618Z,66.58
2018-04-30T07:06:17.796Z,66.48
2018-04-30T07:07:17.990Z,66.93
2018-04-30T07:08:18.169Z,67.31
2018-04-30T07:09:18.555Z,67.79
2018-04-30T07:10:18.520Z,67.60
2018-04-30T07:11:18.704Z,67.88
2018-04-30T07:12:18.882Z,68.84
2018-04-30T07:13:19.066Z,68.36
2018-04-30T07:14:19.275Z,68.07
2018-04-30T07:15:19.412Z,67.50
2018-04-30T07:16:19.591Z,67.60
2018-04-30T07:17:19.783Z,67.69
2018-04-30T07:18:19.961Z,67.98
2018-04-30T07:19:20.158Z,68.42
2018-04-30T07:20:20.337Z,68.13
2018-04-30T07:21:20.505Z,68.65
2018-04-30T07:22:20.686Z,68.36
2018-04-30T07:23:20.872Z,68.46
2018-04-30T07:24:21.056Z,67.50
2018-04-30T07:25:21.234Z,67.60
2018-04-30T07:26:21.420Z,67.60
2018-04-30T07:27:21.611Z,67.98
2018-04-30T07:28:21.784Z,67.88
2018-04-30T07:29:21.973Z,67.98
2018-04-30T07:30:22.135Z,67.66
2018-04-30T07:31:22.315Z,68.71
2018-04-30T07:32:22.478Z,68.23
2018-04-30T07:33:22.672Z,68.62
2018-04-30T07:34:22.844Z,68.80
2018-04-30T07:35:23.029Z,68.04
2018-04-30T07:36:23.224Z,68.33
2018-04-30T07:37:23.405Z,68.23
2018-04-30T07:38:23.578Z,68.80
2018-04-30T07:39:23.813Z,68.33
2018-04-30T07:40:23.939Z,68.80
2018-04-30T07:41:24.122Z,68.71
2018-04-30T07:42:24.292Z,68.90
2018-04-30T07:43:24.479Z,69.54
2018-04-30T07:44:24.657Z,70.21
2018-04-30T07:45:25.077Z,70.21
2018-04-30T07:46:25.014Z,70.59
2018-04-30T07:47:25.188Z,70.59
2018-04-30T07:48:25.366Z,71.16
2018-04-30T07:49:25.541Z,70.59
2018-04-30T07:50:25.723Z,70.87
2018-04-30T07:51:25.909Z,70.56
2018-04-30T07:52:26.078Z,70.94
2018-04-30T07:53:26.260Z,71.16
2018-04-30T07:54:26.449Z,70.84
2018-04-30T07:55:26.626Z,70.68
2018-04-30T07:56:26.807Z,70.84
2018-04-30T07:57:26.994Z,71.13
2018-04-30T07:58:27.174Z,70.84
2018-04-30T07:59:27.354Z,70.94
2018-04-30T08:00:27.531Z,71.03
2018-04-30T08:01:27.713Z,70.94
2018-04-30T08:02:27.894Z,71.13
2018-04-30T08:03:28.134Z,71.03
2018-04-30T08:05:28.425Z,71.03
2018-04-30T08:06:28.606Z,71.03
2018-04-30T08:07:28.783Z,71.03
2018-04-30T08:08:28.979Z,70.75
2018-04-30T08:09:29.171Z,70.94
2018-04-30T08:10:29.329Z,71.32
2018-04-30T08:11:29.571Z,71.32
2018-04-30T08:12:29.710Z,71.32
2018-04-30T08:13:29.904Z,71.51
2018-04-30T08:14:30.071Z,71.80
2018-04-30T08:15:30.252Z,71.61
2018-04-30T08:16:30.422Z,71.70
2018-04-30T08:17:30.605Z,71.51
2018-04-30T08:18:30.987Z,71.32
2018-04-30T08:19:31.018Z,71.89
2018-04-30T08:20:31.235Z,71.89
2018-04-30T08:21:31.447Z,71.80
2018-04-30T08:22:31.593Z,71.22
2018-04-30T08:23:31.776Z,71.70
2018-04-30T08:24:31.957Z,71.99
2018-04-30T08:25:32.137Z,71.51
2018-04-30T08:26:32.320Z,71.70
2018-04-30T08:27:32.497Z,71.32
2018-04-30T08:28:32.676Z,70.94
2018-04-30T08:29:32.854Z,71.03
2018-04-30T08:30:33.043Z,70.84
2018-04-30T08:31:33.214Z,70.84
2018-04-30T08:32:33.403Z,71.89
2018-04-30T08:33:33.579Z,71.32
2018-04-30T08:34:33.780Z,71.13
2018-04-30T08:35:33.949Z,71.70
2018-04-30T08:36:34.136Z,71.61
2018-04-30T08:37:34.290Z,71.70
2018-04-30T08:38:34.481Z,71.51
2018-04-30T08:39:34.644Z,71.89
2018-04-30T08:40:34.836Z,72.18
2018-04-30T08:41:35.012Z,71.89
2018-04-30T08:42:35.180Z,71.70
2018-04-30T08:43:35.353Z,71.99
2018-04-30T08:44:35.546Z,71.61
2018-04-30T08:45:35.721Z,71.51
2018-04-30T08:46:35.880Z,71.89
2018-04-30T08:47:36.085Z,72.08
2018-04-30T08:48:36.264Z,71.51
2018-04-30T08:49:36.447Z,71.99
2018-04-30T08:50:36.625Z,71.89
2018-04-30T08:51:36.811Z,71.51
2018-04-30T08:52:36.985Z,71.51
2018-04-30T08:53:37.205Z,71.89
2018-04-30T08:54:37.370Z,72.47
2018-04-30T08:55:37.555Z,72.28
2018-04-30T08:56:37.733Z,72.28
2018-04-30T08:57:37.944Z,72.28
2018-04-30T08:58:38.082Z,72.56
2018-04-30T08:59:38.256Z,71.32
2018-04-30T09:00:38.580Z,71.51
2018-04-30T09:01:38.593Z,71.70
2018-04-30T09:02:39.023Z,71.32
2018-04-30T09:03:38.967Z,70.97
2018-04-30T09:04:39.135Z,70.97
2018-04-30T09:05:39.310Z,71.26
2018-04-30T09:06:39.505Z,71.16
2018-04-30T09:07:39.633Z,71.51
2018-04-30T09:08:39.834Z,72.08
2018-04-30T09:09:40.118Z,72.28
2018-04-30T09:10:40.217Z,72.18
2018-04-30T09:11:40.332Z,72.37
2018-04-30T09:12:40.507Z,72.37
2018-04-30T09:13:40.683Z,72.37
2018-04-30T09:14:40.887Z,72.28
2018-04-30T09:15:41.061Z,72.37
2018-04-30T09:16:41.248Z,72.47
2018-04-30T09:17:41.432Z,72.28
2018-04-30T09:18:41.607Z,72.18
2018-04-30T09:19:41.780Z,72.66
2018-04-30T09:20:41.975Z,71.99
2018-04-30T09:21:42.148Z,71.70
2018-04-30T09:22:42.333Z,71.22
2018-04-30T09:23:42.515Z,71.89
2018-04-30T09:24:42.687Z,71.61
2018-04-30T09:25:42.858Z,71.89
2018-04-30T09:26:43.030Z,71.89
2018-04-30T09:27:43.226Z,72.47
2018-04-30T09:28:43.421Z,72.08
2018-04-30T09:29:43.836Z,72.08
2018-04-30T09:30:43.754Z,72.08
2018-04-30T09:31:43.932Z,71.61
2018-04-30T09:32:44.136Z,71.80
2018-04-30T09:33:44.289Z,71.07
2018-04-30T09:34:44.472Z,70.97
2018-04-30T09:35:44.650Z,70.78
2018-04-30T09:36:44.837Z,71.13
2018-04-30T09:37:45.019Z,70.68
2018-04-30T09:38:45.187Z,71.16
2018-04-30T09:39:45.368Z,70.78
2018-04-30T09:40:45.553Z,70.21
2018-04-30T09:41:45.751Z,70.59
2018-04-30T09:42:45.902Z,70.68
2018-04-30T09:43:46.083Z,70.68
2018-04-30T09:44:46.278Z,70.68
2018-04-30T09:45:46.447Z,70.11
2018-04-30T09:46:46.635Z,69.82
2018-04-30T09:47:46.808Z,69.15
2018-04-30T09:48:46.987Z,68.68
2018-04-30T09:49:47.167Z,69.00
2018-04-30T09:50:47.350Z,68.42
2018-04-30T09:51:47.529Z,67.66
2018-04-30T09:52:47.734Z,67.27
2018-04-30T09:53:47.900Z,66.89
2018-04-30T09:54:48.090Z,66.70
2018-04-30T09:55:48.263Z,66.61
2018-04-30T09:56:48.690Z,67.43
2018-04-30T09:57:48.662Z,66.70
2018-04-30T09:58:48.811Z,66.80
2018-04-30T09:59:48.986Z,66.89
2018-04-30T10:00:49.169Z,67.72
2018-04-30T10:01:49.347Z,66.86
2018-04-30T10:02:49.527Z,66.70
2018-04-30T10:03:49.700Z,65.84
2018-04-30T10:04:49.883Z,65.94
2018-04-30T10:05:50.062Z,65.08
2018-04-30T10:06:50.252Z,64.28
2018-04-30T10:07:50.423Z,63.70
2018-04-30T10:08:50.604Z,62.52
2018-04-30T10:09:50.789Z,62.07
2018-04-30T10:10:50.972Z,62.04
2018-04-30T10:11:51.155Z,61.76
2018-04-30T10:12:51.349Z,61.94
2018-04-30T10:13:51.520Z,61.11
2018-04-30T10:14:51.693Z,60.22
2018-04-30T10:15:51.885Z,60.44
2018-04-30T10:16:52.060Z,60.44
2018-04-30T10:17:52.323Z,59.48
2018-04-30T10:18:52.427Z,59.39
2018-04-30T10:19:52.609Z,59.39
2018-04-30T10:20:52.774Z,59.20
2018-04-30T10:21:52.957Z,58.62
2018-04-30T10:22:53.137Z,58.56
2018-04-30T10:23:53.336Z,58.27
2018-04-30T10:24:53.500Z,58.27
2018-04-30T10:25:53.688Z,58.53
2018-04-30T10:26:53.853Z,58.53
2018-04-30T10:27:54.031Z,58.53
2018-04-30T10:28:54.208Z,58.72
2018-04-30T10:29:54.395Z,58.62
2018-04-30T10:30:54.585Z,58.91
2018-04-30T10:31:54.755Z,58.98
2018-04-30T10:32:54.946Z,59.17
2018-04-30T10:33:55.121Z,59.75
2018-04-30T10:34:55.314Z,59.39
2018-04-30T10:35:55.490Z,59.77
2018-04-30T10:36:55.671Z,59.20
2018-04-30T10:37:55.981Z,59.45
2018-04-30T10:38:56.039Z,59.20
2018-04-30T10:39:56.217Z,59.45
2018-04-30T10:40:56.411Z,58.24
2018-04-30T10:41:56.574Z,57.86
2018-04-30T10:42:56.766Z,56.93
2018-04-30T10:43:56.929Z,56.35
2018-04-30T10:44:57.127Z,55.71
2018-04-30T10:45:57.329Z,54.85
2018-04-30T10:46:57.488Z,54.08
2018-04-30T10:47:57.912Z,53.15
2018-04-30T10:48:57.850Z,52.76
2018-04-30T10:49:58.013Z,52.86
2018-04-30T10:50:58.207Z,51.81
2018-04-30T10:51:58.369Z,53.15
2018-04-30T10:52:58.559Z,52.86
2018-04-30T10:53:58.735Z,52.19
2018-04-30T10:54:58.924Z,51.81
2018-04-30T10:55:59.100Z,52.00
2018-04-30T10:56:59.284Z,52.16
2018-04-30T10:57:59.463Z,52.74
2018-04-30T10:58:59.641Z,53.00
2018-04-30T10:59:59.813Z,53.00
2018-04-30T11:00:59.998Z,52.62
2018-04-30T11:02:00.187Z,52.71
2018-04-30T11:03:00.371Z,53.19
2018-04-30T11:04:00.556Z,53.38
2018-04-30T11:05:00.970Z,53.28
2018-04-30T11:06:00.926Z,53.00
2018-04-30T11:07:01.077Z,53.09
2018-04-30T11:08:01.267Z,52.91
2018-04-30T11:09:01.457Z,52.71
2018-04-30T11:10:01.630Z,53.38
2018-04-30T11:11:01.821Z,53.00
2018-04-30T11:12:01.994Z,53.38
2018-04-30T11:13:02.173Z,52.83
2018-04-30T11:14:02.356Z,53.31
2018-04-30T11:15:02.545Z,53.24
2018-04-30T11:16:02.720Z,51.90
2018-04-30T11:17:02.899Z,51.81
2018-04-30T11:18:03.089Z,52.09
2018-04-30T11:19:03.268Z,52.00
2018-04-30T11:20:03.451Z,51.42
2018-04-30T11:21:03.636Z,51.61
2018-04-30T11:22:04.055Z,51.78
2018-04-30T11:23:04.003Z,52.28
2018-04-30T11:24:04.185Z,51.78
2018-04-30T11:26:04.542Z,52.07
2018-04-30T11:27:04.728Z,52.16
2018-04-30T11:28:04.916Z,53.03
2018-04-30T11:29:05.090Z,53.22
2018-04-30T11:30:05.274Z,53.22
2018-04-30T11:31:05.448Z,53.03
2018-04-30T11:32:05.662Z,52.55
2018-04-30T11:33:05.820Z,52.45
2018-04-30T11:34:06.027Z,52.48
2018-04-30T11:35:06.182Z,52.95
2018-04-30T11:36:06.368Z,51.90
2018-04-30T11:37:06.546Z,51.06
2018-04-30T11:38:06.727Z,50.78
2018-04-30T11:39:06.909Z,50.87
2018-04-30T11:40:07.137Z,51.83
2018-04-30T11:41:07.292Z,51.93
2018-04-30T11:42:07.475Z,51.25
2018-04-30T11:43:07.652Z,51.25
2018-04-30T11:44:07.832Z,50.49
2018-04-30T11:45:08.018Z,50.58
2018-04-30T11:46:08.197Z,49.98
2018-04-30T11:47:08.438Z,49.79
2018-04-30T11:48:08.566Z,49.41
2018-04-30T11:49:08.760Z,49.41
2018-04-30T11:50:08.956Z,49.50
2018-04-30T11:51:09.122Z,49.79
2018-04-30T11:52:09.300Z,49.43
2018-04-30T11:53:09.480Z,49.05
2018-04-30T11:54:09.660Z,48.59
2018-04-30T11:55:09.850Z,48.11
2018-04-30T11:56:10.036Z,47.92
2018-04-30T11:57:10.209Z,46.67
2018-04-30T11:58:10.376Z,46.36
2018-04-30T11:59:10.565Z,47.10
2018-04-30T12:00:10.744Z,47.58
2018-04-30T12:01:10.928Z,47.61
2018-04-30T12:02:11.104Z,47.03
2018-04-30T12:03:11.277Z,46.94
2018-04-30T12:04:11.455Z,46.74
2018-04-30T12:05:11.639Z,47.51
2018-04-30T12:06:11.827Z,47.61
2018-04-30T12:07:12.003Z,47.80
2018-04-30T12:08:12.190Z,47.71
2018-04-30T12:09:12.364Z,46.77
2018-04-30T12:10:12.550Z,46.94
2018-04-30T12:11:12.744Z,46.84
2018-04-30T12:12:12.949Z,47.68
2018-04-30T12:13:13.135Z,47.51
2018-04-30T12:14:13.319Z,47.61
2018-04-30T12:15:13.502Z,47.71
2018-04-30T12:16:13.699Z,47.99
2018-04-30T12:17:13.869Z,47.41
2018-04-30T12:18:14.050Z,47.71
2018-04-30T12:19:14.243Z,47.13
2018-04-30T12:20:14.667Z,47.41
2018-04-30T12:21:14.600Z,47.61
2018-04-30T12:22:14.858Z,47.61
2018-04-30T12:23:14.972Z,46.96
2018-04-30T12:24:15.146Z,46.74
2018-04-30T12:25:15.352Z,46.55
2018-04-30T12:26:15.535Z,46.74
2018-04-30T12:27:15.723Z,46.74
2018-04-30T12:28:15.964Z,46.72
2018-04-30T12:29:16.080Z,47.68
2018-04-30T12:31:16.445Z,47.77
2018-04-30T12:32:16.624Z,47.77
2018-04-30T12:33:16.803Z,47.77
2018-04-30T12:34:16.989Z,47.58
2018-04-30T12:35:17.174Z,47.77
2018-04-30T12:36:17.355Z,47.49
2018-04-30T12:37:17.553Z,47.49
2018-04-30T12:38:17.727Z,47.30
2018-04-30T12:39:17.908Z,47.30
2018-04-30T12:40:18.095Z,47.58
2018-04-30T12:41:18.291Z,47.49
2018-04-30T12:42:18.457Z,47.68
2018-04-30T12:43:18.639Z,47.39
2018-04-30T12:44:19.117Z,47.71
2018-04-30T12:45:19.020Z,47.51
2018-04-30T12:46:19.194Z,47.41
2018-04-30T12:47:19.369Z,47.71
2018-04-30T12:48:19.558Z,47.80
2018-04-30T12:49:19.729Z,47.41
2018-04-30T12:50:19.920Z,47.63
2018-04-30T12:51:20.093Z,47.63
2018-04-30T12:52:20.289Z,47.51
2018-04-30T12:53:20.458Z,47.61
2018-04-30T12:54:20.643Z,47.03
2018-04-30T12:55:20.824Z,47.68
2018-04-30T12:56:21.010Z,47.58
2018-04-30T12:57:21.191Z,47.71
2018-04-30T12:58:21.376Z,47.51
2018-04-30T12:59:21.560Z,47.61
2018-04-30T13:00:21.739Z,47.51
2018-04-30T13:01:21.951Z,47.22
2018-04-30T13:02:22.093Z,47.51
2018-04-30T13:03:22.279Z,47.49